Pointblank, Texas
Current Conditions -  °F | °C
As of 6:53 PM on Thursday 27 Nov 2014 (Local Time) from KUTS Reporting Station
Clear Clear  
Wind Chill:   Ceiling: Unl
Heat Index:   Visibility: 10mi
Dew Point:   Wind: 0mph
Humidity: 64%   Direction: NA
Pressure: 30.41"   Gusts: NA
Location:  30.74°N, 95.21°W
Report Text: KUTS 280053Z AUTO 00000KT 10SM CLR 09/03 A3041 RMK AO2 SLP298 T00940028
Loading
Personal Weather Stations






























Interactive Weather Map New forecast layout! Learn more

10-Day Weather Forecast

Advertisements
Track Severe Weather on mobile